createdAt,value
2017-04-06T00:00:08.546Z,7.32
2017-04-06T00:01:09.973Z,7.37
2017-04-06T00:02:11.395Z,7.38
2017-04-06T00:03:12.826Z,7.38
2017-04-06T00:04:14.903Z,7.47
2017-04-06T00:05:16.319Z,7.47
2017-04-06T00:06:17.742Z,7.49
2017-04-06T00:07:19.162Z,7.45
2017-04-06T00:08:20.597Z,7.41
2017-04-06T00:09:22.014Z,7.41
2017-04-06T00:10:23.444Z,7.34
2017-04-06T00:11:24.862Z,7.34
2017-04-06T00:12:26.293Z,7.38
2017-04-06T00:13:27.726Z,7.34
2017-04-06T00:14:29.146Z,7.32
2017-04-06T00:15:30.572Z,7.15
2017-04-06T00:16:32.000Z,7.32
2017-04-06T00:17:33.419Z,7.17
2017-04-06T00:18:34.843Z,7.20
2017-04-06T00:19:36.267Z,7.20
2017-04-06T00:20:37.688Z,7.20
2017-04-06T00:21:39.107Z,7.23
2017-04-06T00:22:40.526Z,7.13
2017-04-06T00:23:41.960Z,7.04
2017-04-06T00:24:43.394Z,7.02
2017-04-06T00:25:44.826Z,7.02
2017-04-06T00:26:46.253Z,6.94
2017-04-06T00:27:47.669Z,7.17
2017-04-06T00:28:49.087Z,7.04
2017-04-06T00:29:50.515Z,7.07
2017-04-06T00:30:51.941Z,7.05
2017-04-06T00:31:53.371Z,6.99
2017-04-06T00:32:54.797Z,7.04
2017-04-06T00:33:56.221Z,6.87
2017-04-06T00:34:57.641Z,6.94
2017-04-06T00:35:59.064Z,6.89
2017-04-06T00:37:00.492Z,6.97
2017-04-06T00:38:01.923Z,6.81
2017-04-06T00:39:03.347Z,6.94
2017-04-06T00:40:04.770Z,6.90
2017-04-06T00:41:06.196Z,7.01
2017-04-06T00:42:07.615Z,7.02
2017-04-06T00:43:09.030Z,7.04
2017-04-06T00:44:10.468Z,7.17
2017-04-06T00:45:11.893Z,7.16
2017-04-06T00:46:13.314Z,7.19
2017-04-06T00:47:14.747Z,7.09
2017-04-06T00:48:16.168Z,7.04
2017-04-06T00:49:17.592Z,7.05
2017-04-06T00:50:19.536Z,7.09
2017-04-06T00:51:20.965Z,6.91
2017-04-06T00:52:22.381Z,6.90
2017-04-06T00:53:23.810Z,6.91
2017-04-06T00:54:25.233Z,6.91
2017-04-06T00:55:27.227Z,6.90
2017-04-06T00:56:28.650Z,6.97
2017-04-06T00:57:30.073Z,6.90
2017-04-06T00:58:31.493Z,6.94
2017-04-06T00:59:32.923Z,6.87
2017-04-06T01:00:34.340Z,6.94
2017-04-06T01:01:35.766Z,6.90
2017-04-06T01:02:37.188Z,6.80
2017-04-06T01:03:38.611Z,6.83
2017-04-06T01:04:40.037Z,6.81
2017-04-06T01:05:41.456Z,6.80
2017-04-06T01:06:42.873Z,6.84
2017-04-06T01:07:44.296Z,6.80
2017-04-06T01:08:45.729Z,6.79
2017-04-06T01:09:47.157Z,6.80
2017-04-06T01:10:48.580Z,6.86
2017-04-06T01:11:50.003Z,6.94
2017-04-06T01:12:51.428Z,6.91
2017-04-06T01:13:52.851Z,6.91
2017-04-06T01:14:54.268Z,6.80
2017-04-06T01:15:55.691Z,6.80
2017-04-06T01:16:57.118Z,6.81
2017-04-06T01:17:58.537Z,6.91
2017-04-06T01:18:59.953Z,6.89
2017-04-06T01:20:01.376Z,6.94
2017-04-06T01:21:02.798Z,6.80
2017-04-06T01:22:04.221Z,6.80
2017-04-06T01:23:06.487Z,6.86
2017-04-06T01:24:07.895Z,6.83
2017-04-06T01:25:09.320Z,6.81
2017-04-06T01:26:10.747Z,6.77
2017-04-06T01:27:12.168Z,6.83
2017-04-06T01:28:13.592Z,6.91
2017-04-06T01:29:15.010Z,7.01
2017-04-06T01:30:16.439Z,7.02
2017-04-06T01:31:17.862Z,7.05
2017-04-06T01:32:19.291Z,6.79
2017-04-06T01:33:20.708Z,6.94
2017-04-06T01:34:22.142Z,6.89
2017-04-06T01:35:23.626Z,6.80
2017-04-06T01:36:25.049Z,6.80
2017-04-06T01:37:26.472Z,6.77
2017-04-06T01:38:27.949Z,6.63
2017-04-06T01:39:29.372Z,6.69
2017-04-06T01:40:30.797Z,6.63
2017-04-06T01:41:32.222Z,6.71
2017-04-06T01:42:33.649Z,6.65
2017-04-06T01:43:35.077Z,6.56
2017-04-06T01:44:36.499Z,6.59
2017-04-06T01:45:37.922Z,6.61
2017-04-06T01:46:39.344Z,6.58
2017-04-06T01:47:40.770Z,6.61
2017-04-06T01:48:42.191Z,6.73
2017-04-06T01:49:43.605Z,6.73
2017-04-06T01:50:45.027Z,6.80
2017-04-06T01:51:47.335Z,6.77
2017-04-06T01:52:48.758Z,6.87
2017-04-06T01:53:50.189Z,6.94
2017-04-06T01:54:51.608Z,7.07
2017-04-06T01:55:53.033Z,6.89
2017-04-06T01:56:54.452Z,6.95
2017-04-06T01:57:55.875Z,6.95
2017-04-06T01:58:57.312Z,7.05
2017-04-06T01:59:58.727Z,7.01
2017-04-06T02:01:00.158Z,7.16
2017-04-06T02:02:01.580Z,7.19
2017-04-06T02:03:03.010Z,7.04
2017-04-06T02:04:04.429Z,7.02
2017-04-06T02:05:05.865Z,7.07
2017-04-06T02:06:07.289Z,7.09
2017-04-06T02:07:08.711Z,7.16
2017-04-06T02:08:10.142Z,7.19
2017-04-06T02:09:11.559Z,7.12
2017-04-06T02:10:12.987Z,7.16
2017-04-06T02:11:14.404Z,7.16
2017-04-06T02:12:15.830Z,7.05
2017-04-06T02:13:17.262Z,7.09
2017-04-06T02:14:18.682Z,6.87
2017-04-06T02:15:20.117Z,6.95
2017-04-06T02:16:21.542Z,6.89
2017-04-06T02:17:22.966Z,6.87
2017-04-06T02:18:24.389Z,6.77
2017-04-06T02:19:25.811Z,6.79
2017-04-06T02:20:27.237Z,6.77
2017-04-06T02:21:28.662Z,6.81
2017-04-06T02:22:30.117Z,6.76
2017-04-06T02:23:31.544Z,6.56
2017-04-06T02:24:32.956Z,6.58
2017-04-06T02:25:34.384Z,6.65
2017-04-06T02:26:35.856Z,6.53
2017-04-06T02:27:37.285Z,6.46
2017-04-06T02:28:38.701Z,6.53
2017-04-06T02:29:40.214Z,6.66
2017-04-06T02:30:41.634Z,6.54
2017-04-06T02:31:43.065Z,6.54
2017-04-06T02:32:44.493Z,6.48
2017-04-06T02:33:45.913Z,6.61
2017-04-06T02:34:47.337Z,6.66
2017-04-06T02:35:48.765Z,6.51
2017-04-06T02:36:50.191Z,6.56
2017-04-06T02:37:51.669Z,6.56
2017-04-06T02:38:53.101Z,6.65
2017-04-06T02:39:54.523Z,6.66
2017-04-06T02:40:56.020Z,6.48
2017-04-06T02:41:57.453Z,6.59
2017-04-06T02:42:58.873Z,6.53
2017-04-06T02:44:00.301Z,6.50
2017-04-06T02:45:01.721Z,6.33
2017-04-06T02:46:03.147Z,6.51
2017-04-06T02:47:04.572Z,6.43
2017-04-06T02:48:05.991Z,6.53
2017-04-06T02:49:07.415Z,6.51
2017-04-06T02:50:08.842Z,6.51
2017-04-06T02:51:10.266Z,6.51
2017-04-06T02:52:11.681Z,6.54
2017-04-06T02:53:13.104Z,6.62
2017-04-06T02:54:14.529Z,6.47
2017-04-06T02:55:15.958Z,6.47
2017-04-06T02:56:17.380Z,6.53
2017-04-06T02:57:18.796Z,6.61
2017-04-06T02:58:20.218Z,6.58
2017-04-06T02:59:21.643Z,6.51
2017-04-06T03:00:23.063Z,6.54
2017-04-06T03:01:24.486Z,6.56
2017-04-06T03:02:25.908Z,6.54
2017-04-06T03:03:27.332Z,6.53
2017-04-06T03:04:28.764Z,6.51
2017-04-06T03:05:30.187Z,6.51
2017-04-06T03:06:31.604Z,6.58
2017-04-06T03:07:33.025Z,6.50
2017-04-06T03:08:34.452Z,6.46
2017-04-06T03:09:35.904Z,6.44
2017-04-06T03:10:37.304Z,6.46
2017-04-06T03:11:38.735Z,6.33
2017-04-06T03:12:40.155Z,6.29
2017-04-06T03:13:41.588Z,6.50
2017-04-06T03:14:43.013Z,6.35
2017-04-06T03:15:44.441Z,6.30
2017-04-06T03:16:45.870Z,6.29
2017-04-06T03:17:47.300Z,6.30
2017-04-06T03:18:48.726Z,6.22
2017-04-06T03:19:50.152Z,6.33
2017-04-06T03:20:51.570Z,6.18
2017-04-06T03:21:52.998Z,6.10
2017-04-06T03:22:54.420Z,6.14
2017-04-06T03:23:55.849Z,6.30
2017-04-06T03:24:57.273Z,6.26
2017-04-06T03:25:58.698Z,6.13
2017-04-06T03:27:00.115Z,6.29
2017-04-06T03:28:01.539Z,6.13
2017-04-06T03:29:02.965Z,6.26
2017-04-06T03:30:04.383Z,6.26
2017-04-06T03:31:05.813Z,6.29
2017-04-06T03:32:07.232Z,6.25
2017-04-06T03:33:08.658Z,6.30
2017-04-06T03:34:10.189Z,6.14
2017-04-06T03:35:11.627Z,6.09
2017-04-06T03:36:13.070Z,6.30
2017-04-06T03:37:14.500Z,6.32
2017-04-06T03:38:15.921Z,6.13
2017-04-06T03:39:17.344Z,6.11
2017-04-06T03:40:18.772Z,6.10
2017-04-06T03:41:20.192Z,6.00
2017-04-06T03:42:21.622Z,6.06
2017-04-06T03:43:23.044Z,6.06
2017-04-06T03:44:24.471Z,6.00
2017-04-06T03:45:25.903Z,6.00
2017-04-06T03:46:27.313Z,5.86
2017-04-06T03:47:28.736Z,6.04
2017-04-06T03:48:30.158Z,6.06
2017-04-06T03:49:31.578Z,5.98
2017-04-06T03:50:32.997Z,6.06
2017-04-06T03:51:34.420Z,6.06
2017-04-06T03:52:35.844Z,5.96
2017-04-06T03:53:37.265Z,5.88
2017-04-06T03:54:38.690Z,5.89
2017-04-06T03:55:40.112Z,5.89
2017-04-06T03:56:41.533Z,5.96
2017-04-06T03:57:42.956Z,6.04
2017-04-06T03:58:44.382Z,6.01
2017-04-06T03:59:45.804Z,5.89
2017-04-06T04:00:47.230Z,6.06
2017-04-06T04:01:49.141Z,5.83
2017-04-06T04:02:50.567Z,6.03
2017-04-06T04:03:52.058Z,6.03
2017-04-06T04:04:53.490Z,6.03
2017-04-06T04:05:54.913Z,5.96
2017-04-06T04:06:56.333Z,5.98
2017-04-06T04:07:57.753Z,6.11
2017-04-06T04:08:59.179Z,6.11
2017-04-06T04:10:00.602Z,6.21
2017-04-06T04:11:02.023Z,6.33
2017-04-06T04:12:03.454Z,6.06
2017-04-06T04:13:05.699Z,6.07
2017-04-06T04:14:07.118Z,6.03
2017-04-06T04:15:08.538Z,6.09
2017-04-06T04:16:09.962Z,6.26
2017-04-06T04:17:11.381Z,6.35
2017-04-06T04:18:12.799Z,6.40
2017-04-06T04:19:14.217Z,6.50
2017-04-06T04:20:15.650Z,6.56
2017-04-06T04:21:17.073Z,6.46
2017-04-06T04:22:18.489Z,6.38
2017-04-06T04:23:19.913Z,6.36
2017-04-06T04:24:21.330Z,6.33
2017-04-06T04:25:22.838Z,6.35
2017-04-06T04:26:24.266Z,6.26
2017-04-06T04:27:25.709Z,6.46
2017-04-06T04:28:27.122Z,6.69
2017-04-06T04:29:28.548Z,6.77
2017-04-06T04:30:29.975Z,6.80
2017-04-06T04:31:31.408Z,6.66
2017-04-06T04:32:32.831Z,6.51
2017-04-06T04:33:34.252Z,6.53
2017-04-06T04:34:35.688Z,6.56
2017-04-06T04:35:37.111Z,6.61
2017-04-06T04:36:38.532Z,6.59
2017-04-06T04:37:39.947Z,6.61
2017-04-06T04:38:41.379Z,6.58
2017-04-06T04:39:42.816Z,6.62
2017-04-06T04:40:44.256Z,6.63
2017-04-06T04:41:45.675Z,6.62
2017-04-06T04:42:47.094Z,6.62
2017-04-06T04:43:48.515Z,6.71
2017-04-06T04:44:49.940Z,6.58
2017-04-06T04:45:51.364Z,6.50
2017-04-06T04:46:52.779Z,6.56
2017-04-06T04:47:54.208Z,6.65
2017-04-06T04:48:55.637Z,6.76
2017-04-06T04:49:57.058Z,6.66
2017-04-06T04:50:58.492Z,6.62
2017-04-06T04:51:59.933Z,6.79
2017-04-06T04:53:01.356Z,6.62
2017-04-06T04:54:02.785Z,6.53
2017-04-06T04:55:04.215Z,6.47
2017-04-06T04:56:05.718Z,6.53
2017-04-06T04:57:07.140Z,6.51
2017-04-06T04:58:08.567Z,6.56
2017-04-06T04:59:09.992Z,6.71
2017-04-06T05:00:11.471Z,6.63
2017-04-06T05:01:12.897Z,6.51
2017-04-06T05:02:14.322Z,6.68
2017-04-06T05:03:15.749Z,6.77
2017-04-06T05:04:17.180Z,6.83
2017-04-06T05:05:18.731Z,6.87
2017-04-06T05:06:20.167Z,6.99
2017-04-06T05:07:21.614Z,6.91
2017-04-06T05:08:23.042Z,6.76
2017-04-06T05:09:24.468Z,6.81
2017-04-06T05:10:25.904Z,6.71
2017-04-06T05:11:27.339Z,6.87
2017-04-06T05:12:28.763Z,7.05
2017-04-06T05:13:30.190Z,6.91
2017-04-06T05:14:31.710Z,6.89
2017-04-06T05:15:33.131Z,6.90
2017-04-06T05:16:34.560Z,6.90
2017-04-06T05:17:36.034Z,6.91
2017-04-06T05:18:37.465Z,6.95
2017-04-06T05:19:38.896Z,6.89
2017-04-06T05:20:40.324Z,6.83
2017-04-06T05:21:41.750Z,6.80
2017-04-06T05:22:43.177Z,6.63
2017-04-06T05:23:44.605Z,6.76
2017-04-06T05:24:46.135Z,6.79
2017-04-06T05:25:47.558Z,6.89
2017-04-06T05:26:48.986Z,7.01
2017-04-06T05:27:50.408Z,7.16
2017-04-06T05:28:51.842Z,6.90
2017-04-06T05:29:53.273Z,6.91
2017-04-06T05:30:54.696Z,6.97
2017-04-06T05:31:56.137Z,6.80
2017-04-06T05:32:57.563Z,6.91
2017-04-06T05:33:58.995Z,6.89
2017-04-06T05:35:00.425Z,7.04
2017-04-06T05:36:01.854Z,6.86
2017-04-06T05:37:03.279Z,6.87
2017-04-06T05:38:04.713Z,6.99
2017-04-06T05:39:06.158Z,7.02
2017-04-06T05:40:07.574Z,7.09
2017-04-06T05:41:09.002Z,7.04
2017-04-06T05:42:10.422Z,6.99
2017-04-06T05:43:11.855Z,6.99
2017-04-06T05:44:13.280Z,6.98
2017-04-06T05:45:14.713Z,6.94
2017-04-06T05:46:16.134Z,7.02
2017-04-06T05:47:17.558Z,6.94
2017-04-06T05:48:18.982Z,6.90
2017-04-06T05:49:20.406Z,6.95
2017-04-06T05:50:21.838Z,7.05
2017-04-06T05:51:23.262Z,7.07
2017-04-06T05:52:24.685Z,6.95
2017-04-06T05:53:26.109Z,6.89
2017-04-06T05:54:27.533Z,6.95
2017-04-06T05:55:28.948Z,6.76
2017-04-06T05:56:30.380Z,6.72
2017-04-06T05:57:31.803Z,6.90
2017-04-06T05:58:33.233Z,7.07
2017-04-06T05:59:34.659Z,6.89
2017-04-06T06:00:36.099Z,6.94
2017-04-06T06:01:37.526Z,7.02
2017-04-06T06:02:38.953Z,6.99
2017-04-06T06:03:40.381Z,6.89
2017-04-06T06:04:41.809Z,6.89
2017-04-06T06:05:43.232Z,7.08
2017-04-06T06:06:44.663Z,7.09
2017-04-06T06:07:46.079Z,7.04
2017-04-06T06:08:47.503Z,7.05
2017-04-06T06:09:48.933Z,6.97
2017-04-06T06:10:50.371Z,6.95
2017-04-06T06:11:51.920Z,7.02
2017-04-06T06:12:53.349Z,7.15
2017-04-06T06:13:54.772Z,7.26
2017-04-06T06:14:56.199Z,7.07
2017-04-06T06:15:57.617Z,7.09
2017-04-06T06:16:59.047Z,7.22
2017-04-06T06:18:00.474Z,7.13
2017-04-06T06:19:01.899Z,7.26
2017-04-06T06:20:03.324Z,7.22
2017-04-06T06:21:04.752Z,7.04
2017-04-06T06:22:06.177Z,7.05
2017-04-06T06:23:07.603Z,6.97
2017-04-06T06:24:09.045Z,7.07
2017-04-06T06:25:10.472Z,7.08
2017-04-06T06:26:11.898Z,7.02
2017-04-06T06:27:13.322Z,7.08
2017-04-06T06:28:14.744Z,7.09
2017-04-06T06:29:16.172Z,7.19
2017-04-06T06:30:17.603Z,7.24
2017-04-06T06:31:19.028Z,7.19
2017-04-06T06:32:20.453Z,7.20
2017-04-06T06:33:21.884Z,7.17
2017-04-06T06:34:23.342Z,7.17
2017-04-06T06:35:24.746Z,7.19
2017-04-06T06:36:26.215Z,7.17
2017-04-06T06:37:27.690Z,7.02
2017-04-06T06:38:29.119Z,7.29
2017-04-06T06:39:30.544Z,7.17
2017-04-06T06:40:31.971Z,7.04
2017-04-06T06:41:33.400Z,7.08
2017-04-06T06:42:34.869Z,7.16
2017-04-06T06:43:36.267Z,7.08
2017-04-06T06:44:37.705Z,7.20
2017-04-06T06:45:39.131Z,7.07
2017-04-06T06:46:40.554Z,7.22
2017-04-06T06:47:41.984Z,7.22
2017-04-06T06:48:43.405Z,7.22
2017-04-06T06:49:44.831Z,7.20
2017-04-06T06:50:46.265Z,7.22
2017-04-06T06:51:47.692Z,7.29
2017-04-06T06:52:49.124Z,7.23
2017-04-06T06:53:50.553Z,7.26
2017-04-06T06:54:51.978Z,7.41
2017-04-06T06:55:53.404Z,7.41
2017-04-06T06:56:54.830Z,7.40
2017-04-06T06:57:56.251Z,7.29
2017-04-06T06:58:57.678Z,7.27
2017-04-06T06:59:59.107Z,7.29
2017-04-06T07:01:00.530Z,7.32
2017-04-06T07:02:01.964Z,7.32
2017-04-06T07:03:03.389Z,7.31
2017-04-06T07:04:04.818Z,7.24
2017-04-06T07:05:06.254Z,7.40
2017-04-06T07:06:07.689Z,7.42
2017-04-06T07:07:09.110Z,7.45
2017-04-06T07:08:10.539Z,7.58
2017-04-06T07:09:11.973Z,7.69
2017-04-06T07:10:13.402Z,7.85
2017-04-06T07:11:14.832Z,8.02
2017-04-06T07:12:16.273Z,8.08
2017-04-06T07:13:17.704Z,8.22
2017-04-06T07:14:19.129Z,8.21
2017-04-06T07:15:20.560Z,8.17
2017-04-06T07:16:21.989Z,8.17
2017-04-06T07:17:23.421Z,8.00
2017-04-06T07:18:24.847Z,8.20
2017-04-06T07:19:26.285Z,8.17
2017-04-06T07:20:27.725Z,8.15
2017-04-06T07:21:29.145Z,8.08
2017-04-06T07:22:30.572Z,8.08
2017-04-06T07:23:32.010Z,8.25
2017-04-06T07:24:33.444Z,8.32
2017-04-06T07:25:34.873Z,8.18
2017-04-06T07:26:36.308Z,8.18
2017-04-06T07:27:37.741Z,8.14
2017-04-06T07:28:39.163Z,8.11
2017-04-06T07:29:40.595Z,8.21
2017-04-06T07:30:42.028Z,8.25
2017-04-06T07:31:43.457Z,8.30
2017-04-06T07:32:44.883Z,8.14
2017-04-06T07:33:46.327Z,8.25
2017-04-06T07:34:47.754Z,8.35
2017-04-06T07:35:49.186Z,8.47
2017-04-06T07:36:50.613Z,8.62
2017-04-06T07:37:52.049Z,8.58
2017-04-06T07:38:53.481Z,8.69
2017-04-06T07:39:54.920Z,8.73
2017-04-06T07:40:56.353Z,8.69
2017-04-06T07:41:57.779Z,8.66
2017-04-06T07:42:59.207Z,8.71
2017-04-06T07:44:00.635Z,8.68
2017-04-06T07:45:02.727Z,8.63
2017-04-06T07:46:04.155Z,8.53
2017-04-06T07:47:05.580Z,8.55
2017-04-06T07:48:07.004Z,8.51
2017-04-06T07:49:08.430Z,8.51
2017-04-06T07:50:09.854Z,8.65
2017-04-06T07:51:11.285Z,8.55
2017-04-06T07:52:12.714Z,8.57
2017-04-06T07:53:14.141Z,8.54
2017-04-06T07:54:15.598Z,8.50
2017-04-06T07:55:17.035Z,8.55
2017-04-06T07:56:18.465Z,8.44
2017-04-06T07:57:19.894Z,8.55
2017-04-06T07:58:21.315Z,8.54
2017-04-06T07:59:22.743Z,8.45
2017-04-06T08:00:24.174Z,8.39
2017-04-06T08:01:25.605Z,8.21
2017-04-06T08:02:27.035Z,8.15
2017-04-06T08:03:28.463Z,8.28
2017-04-06T08:04:29.897Z,8.12
2017-04-06T08:05:31.323Z,8.21
2017-04-06T08:06:32.756Z,8.28
2017-04-06T08:07:34.185Z,8.44
2017-04-06T08:08:35.625Z,8.25
2017-04-06T08:09:37.064Z,8.32
2017-04-06T08:10:38.501Z,8.22
2017-04-06T08:11:39.929Z,8.07
2017-04-06T08:12:41.366Z,8.15
2017-04-06T08:13:42.804Z,8.30
2017-04-06T08:14:44.228Z,8.14
2017-04-06T08:15:45.661Z,8.26
2017-04-06T08:16:47.092Z,8.33
2017-04-06T08:17:48.533Z,8.36
2017-04-06T08:18:49.964Z,8.33
2017-04-06T08:19:51.392Z,8.26
2017-04-06T08:20:52.855Z,8.20
2017-04-06T08:21:54.287Z,8.22
2017-04-06T08:22:55.716Z,8.29
2017-04-06T08:23:57.150Z,8.40
2017-04-06T08:24:58.572Z,8.39
2017-04-06T08:26:00.007Z,8.44
2017-04-06T08:27:01.440Z,8.37
2017-04-06T08:28:02.862Z,8.66
2017-04-06T08:29:04.294Z,8.69
2017-04-06T08:30:05.721Z,8.72
2017-04-06T08:31:07.157Z,8.88
2017-04-06T08:32:08.584Z,8.96
2017-04-06T08:33:10.018Z,9.09
2017-04-06T08:34:11.449Z,9.32
2017-04-06T08:35:12.880Z,9.39
2017-04-06T08:36:14.304Z,9.49
2017-04-06T08:37:16.381Z,9.66
2017-04-06T08:38:17.816Z,9.67
2017-04-06T08:39:19.246Z,9.42
2017-04-06T08:40:20.677Z,9.25
2017-04-06T08:41:22.111Z,9.13
2017-04-06T08:42:23.546Z,9.02
2017-04-06T08:43:24.985Z,9.01
2017-04-06T08:44:26.411Z,9.16
2017-04-06T08:45:27.848Z,9.09
2017-04-06T08:46:29.267Z,8.99
2017-04-06T08:47:30.707Z,8.79
2017-04-06T08:48:32.151Z,8.83
2017-04-06T08:49:33.565Z,8.84
2017-04-06T08:50:34.990Z,8.68
2017-04-06T08:51:36.420Z,8.71
2017-04-06T08:52:37.843Z,8.78
2017-04-06T08:53:39.276Z,8.75
2017-04-06T08:54:40.702Z,8.90
2017-04-06T08:55:42.134Z,9.01
2017-04-06T08:56:43.560Z,8.97
2017-04-06T08:57:44.987Z,9.10
2017-04-06T08:58:46.415Z,9.04
2017-04-06T08:59:47.846Z,9.25
2017-04-06T09:00:49.267Z,9.23
2017-04-06T09:01:50.697Z,9.32
2017-04-06T09:02:52.126Z,9.23
2017-04-06T09:03:53.550Z,9.04
2017-04-06T09:04:54.983Z,9.18
2017-04-06T09:05:56.411Z,9.20
2017-04-06T09:06:57.843Z,9.06
2017-04-06T09:07:59.273Z,9.02
2017-04-06T09:09:00.712Z,9.05
2017-04-06T09:10:02.147Z,9.06
2017-04-06T09:11:03.573Z,9.10
2017-04-06T09:12:04.999Z,9.04
2017-04-06T09:13:06.434Z,9.06
2017-04-06T09:14:07.863Z,8.94
2017-04-06T09:15:09.292Z,8.99
2017-04-06T09:16:10.714Z,8.99
2017-04-06T09:17:12.149Z,8.99
2017-04-06T09:18:13.573Z,9.18
2017-04-06T09:19:15.003Z,9.18
2017-04-06T09:20:16.434Z,9.23
2017-04-06T09:21:17.867Z,9.24
2017-04-06T09:22:19.294Z,9.34
2017-04-06T09:23:20.732Z,9.50
2017-04-06T09:24:22.164Z,9.64
2017-04-06T09:25:23.598Z,9.67
2017-04-06T09:26:25.024Z,9.78
2017-04-06T09:27:26.466Z,10.01
2017-04-06T09:28:27.896Z,10.03
2017-04-06T09:29:29.319Z,9.94
2017-04-06T09:30:30.750Z,9.85
2017-04-06T09:31:32.181Z,9.96
2017-04-06T09:32:33.614Z,9.91
2017-04-06T09:33:35.059Z,10.12
2017-04-06T09:34:37.319Z,9.88
2017-04-06T09:35:38.753Z,10.12
2017-04-06T09:36:40.183Z,10.09
2017-04-06T09:37:41.617Z,9.91
2017-04-06T09:38:43.046Z,9.91
2017-04-06T09:39:44.486Z,9.97
2017-04-06T09:40:45.925Z,10.12
2017-04-06T09:41:47.368Z,10.25
2017-04-06T09:42:48.792Z,10.32
2017-04-06T09:43:50.236Z,10.42
2017-04-06T09:44:51.666Z,10.52
2017-04-06T09:45:53.099Z,10.66
2017-04-06T09:46:54.532Z,10.91
2017-04-06T09:47:55.962Z,11.09
2017-04-06T09:48:57.398Z,11.11
2017-04-06T09:49:58.824Z,11.11
2017-04-06T09:51:00.252Z,10.83
2017-04-06T09:52:01.692Z,10.70
2017-04-06T09:53:03.137Z,10.65
2017-04-06T09:54:04.571Z,10.60
2017-04-06T09:55:06.015Z,10.84
2017-04-06T09:56:07.453Z,10.63
2017-04-06T09:57:08.893Z,10.66
2017-04-06T09:58:10.325Z,10.65
2017-04-06T09:59:11.759Z,10.36
2017-04-06T10:00:13.189Z,10.44
2017-04-06T10:01:14.625Z,10.58
2017-04-06T10:02:16.055Z,10.42
2017-04-06T10:03:17.486Z,10.39
2017-04-06T10:04:18.935Z,10.37
2017-04-06T10:05:20.366Z,10.44
2017-04-06T10:06:21.797Z,10.34
2017-04-06T10:07:23.258Z,10.18
2017-04-06T10:08:24.660Z,10.24
2017-04-06T10:09:26.095Z,10.53
2017-04-06T10:10:27.526Z,10.65
2017-04-06T10:11:28.960Z,10.65
2017-04-06T10:12:30.388Z,10.77
2017-04-06T10:13:31.821Z,10.84
2017-04-06T10:14:33.245Z,10.76
2017-04-06T10:15:34.676Z,10.83
2017-04-06T10:16:36.113Z,10.92
2017-04-06T10:17:37.554Z,11.03
2017-04-06T10:18:38.984Z,10.81
2017-04-06T10:19:40.418Z,10.68
2017-04-06T10:20:41.847Z,10.42
2017-04-06T10:21:43.281Z,10.15
2017-04-06T10:22:44.717Z,10.15
2017-04-06T10:23:46.156Z,10.34
2017-04-06T10:24:47.597Z,10.15
2017-04-06T10:25:49.027Z,9.96
2017-04-06T10:26:50.466Z,10.07
2017-04-06T10:27:51.897Z,10.12
2017-04-06T10:28:53.333Z,10.26
2017-04-06T10:29:54.761Z,10.43
2017-04-06T10:30:56.190Z,10.65
2017-04-06T10:31:57.623Z,10.56
2017-04-06T10:32:59.047Z,10.63
2017-04-06T10:34:00.490Z,10.37
2017-04-06T10:35:01.931Z,10.63
2017-04-06T10:36:03.359Z,10.74
2017-04-06T10:37:04.794Z,10.42
2017-04-06T10:38:06.235Z,10.52
2017-04-06T10:39:07.666Z,10.34
2017-04-06T10:40:09.093Z,10.22
2017-04-06T10:41:10.523Z,10.24
2017-04-06T10:42:11.952Z,10.15
2017-04-06T10:43:13.385Z,10.10
2017-04-06T10:44:14.823Z,10.18
2017-04-06T10:45:16.258Z,10.36
2017-04-06T10:46:17.684Z,10.65
2017-04-06T10:47:19.119Z,10.68
2017-04-06T10:48:20.546Z,10.40
2017-04-06T10:49:21.981Z,10.59
2017-04-06T10:50:23.403Z,10.78
2017-04-06T10:51:24.849Z,10.77
2017-04-06T10:52:26.291Z,10.66
2017-04-06T10:53:27.716Z,10.84
2017-04-06T10:54:29.145Z,10.91
2017-04-06T10:55:30.577Z,10.94
2017-04-06T10:56:32.004Z,11.03
2017-04-06T10:57:33.484Z,11.57
2017-04-06T10:58:34.926Z,11.96
2017-04-06T10:59:36.367Z,11.62
2017-04-06T11:00:37.811Z,11.44
2017-04-06T11:01:39.249Z,11.41
2017-04-06T11:02:40.688Z,11.19
2017-04-06T11:03:42.131Z,11.06
2017-04-06T11:04:43.574Z,10.89
2017-04-06T11:05:45.016Z,10.91
2017-04-06T11:06:46.442Z,10.95
2017-04-06T11:07:47.983Z,10.99
2017-04-06T11:08:49.422Z,11.13
2017-04-06T11:09:50.863Z,11.16
2017-04-06T11:10:52.321Z,11.20
2017-04-06T11:11:53.765Z,10.95
2017-04-06T11:12:55.196Z,10.94
2017-04-06T11:13:56.641Z,11.17
2017-04-06T11:14:58.083Z,11.01
2017-04-06T11:15:59.523Z,11.14
2017-04-06T11:17:00.962Z,11.16
2017-04-06T11:18:02.397Z,11.29
2017-04-06T11:19:03.860Z,11.28
2017-04-06T11:20:05.289Z,11.59
2017-04-06T11:21:06.728Z,12.06
2017-04-06T11:22:08.165Z,12.21
2017-04-06T11:23:09.642Z,12.34
2017-04-06T11:24:11.093Z,12.56
2017-04-06T11:25:12.528Z,12.78
2017-04-06T11:26:13.975Z,12.37
2017-04-06T11:27:15.417Z,12.16
2017-04-06T11:28:16.843Z,12.71
2017-04-06T11:29:18.276Z,12.77
2017-04-06T11:30:19.713Z,12.39
2017-04-06T11:31:21.134Z,12.12
2017-04-06T11:32:22.581Z,11.70
2017-04-06T11:33:24.112Z,11.72
2017-04-06T11:34:27.164Z,11.25
2017-04-06T11:35:28.596Z,11.29
2017-04-06T11:36:30.024Z,11.32
2017-04-06T11:37:31.456Z,11.50
2017-04-06T11:38:32.890Z,11.62
2017-04-06T11:39:34.319Z,11.78
2017-04-06T11:40:35.748Z,11.72
2017-04-06T11:41:37.182Z,11.89
2017-04-06T11:42:38.626Z,11.49
2017-04-06T11:43:40.057Z,11.36
2017-04-06T11:44:41.501Z,11.31
2017-04-06T11:45:42.933Z,11.64
2017-04-06T11:46:44.359Z,12.06
2017-04-06T11:47:46.299Z,12.38
2017-04-06T11:48:47.727Z,12.04
2017-04-06T11:49:49.161Z,11.99
2017-04-06T11:50:50.595Z,12.05
2017-04-06T11:51:52.041Z,12.38
2017-04-06T11:52:53.470Z,12.96
2017-04-06T11:53:55.789Z,12.75
2017-04-06T11:54:57.216Z,12.79
2017-04-06T11:55:58.654Z,12.67
2017-04-06T11:57:00.088Z,12.77
2017-04-06T11:58:01.512Z,12.78
2017-04-06T11:59:02.961Z,12.33
2017-04-06T12:00:04.383Z,11.89
2017-04-06T12:01:05.827Z,11.78
2017-04-06T12:02:07.260Z,11.72
2017-04-06T12:03:08.704Z,11.71
2017-04-06T12:04:10.135Z,11.62
2017-04-06T12:05:11.568Z,12.13
2017-04-06T12:06:12.995Z,12.46
2017-04-06T12:07:14.445Z,12.79
2017-04-06T12:08:15.883Z,12.93
2017-04-06T12:09:17.328Z,13.04
2017-04-06T12:10:18.766Z,13.46
2017-04-06T12:11:20.200Z,13.63
2017-04-06T12:12:22.534Z,13.73
2017-04-06T12:13:23.970Z,14.06
2017-04-06T12:14:25.399Z,13.56
2017-04-06T12:15:26.837Z,13.15
2017-04-06T12:16:28.273Z,13.06
2017-04-06T12:17:29.708Z,13.06
2017-04-06T12:18:31.138Z,13.14
2017-04-06T12:19:32.573Z,13.20
2017-04-06T12:20:34.015Z,12.95
2017-04-06T12:21:35.450Z,12.51
2017-04-06T12:22:36.878Z,12.87
2017-04-06T12:23:38.331Z,12.88
2017-04-06T12:24:39.769Z,12.77
2017-04-06T12:25:41.195Z,12.85
2017-04-06T12:26:42.627Z,13.14
2017-04-06T12:27:44.920Z,13.61
2017-04-06T12:28:46.354Z,13.91
2017-04-06T12:29:47.782Z,13.51
2017-04-06T12:30:49.212Z,13.98
2017-04-06T12:31:50.645Z,14.07
2017-04-06T12:32:52.080Z,14.53
2017-04-06T12:33:53.506Z,14.61
2017-04-06T12:34:54.939Z,14.69
2017-04-06T12:35:56.363Z,14.34
2017-04-06T12:36:58.347Z,13.71
2017-04-06T12:37:59.777Z,13.24
2017-04-06T12:39:01.219Z,13.04
2017-04-06T12:40:02.657Z,13.00
2017-04-06T12:41:04.091Z,12.89
2017-04-06T12:42:05.522Z,12.66
2017-04-06T12:43:07.945Z,12.92
2017-04-06T12:44:09.382Z,13.03
2017-04-06T12:45:10.817Z,13.36
2017-04-06T12:46:12.250Z,13.03
2017-04-06T12:47:13.691Z,13.14
2017-04-06T12:48:15.118Z,13.41
2017-04-06T12:49:16.558Z,13.70
2017-04-06T12:50:17.988Z,13.99
2017-04-06T12:51:19.433Z,14.14
2017-04-06T12:52:20.869Z,13.99
2017-04-06T12:53:22.308Z,13.81
2017-04-06T12:54:23.747Z,13.18
2017-04-06T12:55:25.208Z,13.29
2017-04-06T12:56:26.639Z,13.06
2017-04-06T12:57:28.091Z,13.17
2017-04-06T12:58:29.520Z,13.29
2017-04-06T12:59:30.962Z,13.07
2017-04-06T13:00:32.394Z,13.43
2017-04-06T13:01:33.828Z,13.29
2017-04-06T13:02:35.257Z,12.96
2017-04-06T13:03:36.712Z,13.03
2017-04-06T13:04:38.152Z,13.58
2017-04-06T13:05:39.585Z,13.89
2017-04-06T13:06:41.019Z,14.12
2017-04-06T13:07:42.453Z,14.32
2017-04-06T13:08:43.892Z,14.64
2017-04-06T13:09:45.893Z,14.71
2017-04-06T13:10:47.345Z,14.71
2017-04-06T13:11:48.781Z,13.91
2017-04-06T13:12:50.216Z,13.36
2017-04-06T13:13:51.657Z,13.03
2017-04-06T13:14:53.087Z,13.03
2017-04-06T13:15:54.526Z,12.95
2017-04-06T13:16:55.972Z,12.78
2017-04-06T13:17:58.334Z,12.71
2017-04-06T13:18:59.769Z,12.69
2017-04-06T13:20:01.207Z,12.78
2017-04-06T13:21:02.673Z,13.02
2017-04-06T13:22:04.121Z,13.02
2017-04-06T13:23:05.555Z,13.30
2017-04-06T13:24:06.997Z,13.52
2017-04-06T13:25:08.428Z,16.73
2017-04-06T13:26:09.870Z,20.81
2017-04-06T13:27:11.305Z,22.19
2017-04-06T13:28:12.744Z,24.05
2017-04-06T13:29:14.183Z,25.59